Terminal Aerodrome Forecast
Issued by NWS

Home | Current Version | Previous Version | Text Only | Print | Product List | Glossary On
Versions: 1 2 3 4 5 6 7 8 9 10 11 12
000
FTUS45 KCYS 211120
TAFAIA
TAF
KAIA 211120Z 2112/2212 25008KT P6SM FEW200
     FM211600 28030G40KT P6SM FEW200
     FM220000 27013KT P6SM BKN100=

USA.gov is the U.S. government's official web portal to all federal, state and local government web resources and services.